Position Fahrer Laps Zeit Diff Beste Runde Fahrzeug Status Gesamt Bonuspunkte Strafpunkte
1 (2) Dietmar Scholz 20 31:08.537 - 1:31.393 Ford Zakspeed Capri Beendet 60 0 0
2 (3) Alex Krueger 20 31:27.392 0:18.855 1:31.976 Ford Zakspeed Capri Beendet 55 0 0
3 (1) Eric Nieth 20 31:36.494 0:27.957 1:31.412 BMW 320 Turbo Beendet 51 0 0
4 (5) Nils Herbstrieth 20 31:52.938 0:44.401 1:33.012 Fabcar Engineering 935 Beendet 48 0 0
5 (9) Gerd Haarkamp 20 31:57.052 0:48.515 1:33.674 BMW 320 Turbo Beendet 46 0 0
- 6 (6) Tino Kerkow 20 32:30.195 1:21.658 1:33.925 Fabcar Engineering 935 Beendet 44 0 0
7 (11) Jürgen Tippe 19 31:10.871 -1L 1:36.462 Chevrolet Dekon Monza Beendet 42 0 0
8 (10) Stefan Schreiner 19 32:38.206 -1L 1:35.793 Nissan Skyline 2000RS Beendet 40 0 0
9 (12) Nils Schubert 15 30:25.352 -5L 1:49.105 Ford Zakspeed Capri Beendet 38 0 0
10 (4) Christian Baedorf 12 18:59.255 -8L 1:33.051 Fabcar Engineering 935 DNF 36 0 0
11 (7) André G. 2 01:52.289 -18L 1:52.289 Ford Zakspeed Capri DNF 34 0 0
12 (8) Ronny Krey 1 - -19L - Ford Zakspeed Capri DNS 33 0 0

Rennverlauf

Qualifying

Pos Fahrer Zeit Diff
1 Eric Nieth 1:31.055 -
2 Dietmar Scholz 1:31.427 0:00.372
3 Alex Krueger 1:31.945 0:00.890
4 Christian Baedorf 1:32.583 0:01.528
5 Nils Herbstrieth 1:32.681 0:01.626
6 Tino Kerkow 1:32.878 0:01.823
7 André G. 1:32.950 0:01.895
8 Ronny Krey 1:34.310 0:03.255
9 Gerd Haarkamp 1:34.901 0:03.846
10 Stefan Schreiner 1:35.915 0:04.860
11 Jürgen Tippe 1:36.723 0:05.668
12 Nils Schubert 1:48.177 0:17.122

Climber

Diff Startpos Endpos Fahrer
4 11 7 Jürgen Tippe
4 9 5 Gerd Haarkamp
3 12 9 Nils Schubert
2 10 8 Stefan Schreiner
1 2 1 Dietmar Scholz
1 3 2 Alex Krueger
1 5 4 Nils Herbstrieth
- - 6 6 Tino Kerkow
-2 1 3 Eric Nieth
-4 7 11 André G.
-4 8 12 Ronny Krey
-6 4 10 Christian Baedorf

Die schnellsten 5 pro Runde

Runde 1

Pos Rennpos Fahrer Zeit Diff
1 2 Christian Baedorf 1:46.070 -
2 3 Nils Herbstrieth 1:46.289 0:00.219
3 4 Eric Nieth 1:46.616 0:00.546
4 5 Dietmar Scholz 1:47.064 0:00.994
5 6 Tino Kerkow 1:47.187 0:01.117

Runde 2

Pos Rennpos Fahrer Zeit Diff
1 1 Christian Baedorf 1:34.035 -
2 2 Nils Herbstrieth 1:34.366 0:00.331
3 3 Dietmar Scholz 1:35.946 0:01.911
4 6 Stefan Schreiner 1:36.657 0:02.622
5 5 Gerd Haarkamp 1:37.846 0:03.811

Runde 3

Pos Rennpos Fahrer Zeit Diff
1 3 Dietmar Scholz 1:31.483 -
2 4 Alex Krueger 1:33.191 0:01.708
3 2 Nils Herbstrieth 1:33.412 0:01.929
4 1 Christian Baedorf 1:33.620 0:02.137
5 9 Tino Kerkow 1:35.414 0:03.931

Runde 4

Pos Rennpos Fahrer Zeit Diff
1 6 Eric Nieth 1:31.432 -
2 4 Alex Krueger 1:33.726 0:02.294
3 3 Dietmar Scholz 1:34.238 0:02.806
4 5 Gerd Haarkamp 1:34.246 0:02.814
5 2 Nils Herbstrieth 1:34.380 0:02.948

Runde 5

Pos Rennpos Fahrer Zeit Diff
1 5 Eric Nieth 1:31.670 -
2 4 Alex Krueger 1:32.554 0:00.884
3 1 Nils Herbstrieth 1:33.298 0:01.628
4 2 Dietmar Scholz 1:33.851 0:02.181
5 3 Christian Baedorf 1:34.536 0:02.866

Runde 6

Pos Rennpos Fahrer Zeit Diff
1 5 Eric Nieth 1:31.601 -
2 4 Alex Krueger 1:32.505 0:00.904
3 1 Dietmar Scholz 1:32.601 0:01.000
4 2 Nils Herbstrieth 1:33.553 0:01.952
5 3 Christian Baedorf 1:33.812 0:02.211

Runde 7

Pos Rennpos Fahrer Zeit Diff
1 5 Eric Nieth 1:31.745 -
2 4 Alex Krueger 1:31.976 0:00.231
3 1 Dietmar Scholz 1:32.335 0:00.590
4 3 Christian Baedorf 1:33.696 0:01.951
5 6 Gerd Haarkamp 1:33.945 0:02.200

Runde 8

Pos Rennpos Fahrer Zeit Diff
1 1 Dietmar Scholz 1:32.392 -
2 4 Alex Krueger 1:33.217 0:00.825
3 2 Nils Herbstrieth 1:33.404 0:01.012
4 3 Christian Baedorf 1:33.594 0:01.202
5 6 Gerd Haarkamp 1:33.674 0:01.282

Runde 9

Pos Rennpos Fahrer Zeit Diff
1 5 Eric Nieth 1:31.412 -
2 1 Dietmar Scholz 1:31.812 0:00.400
3 4 Alex Krueger 1:32.742 0:01.330
4 2 Nils Herbstrieth 1:33.012 0:01.600
5 3 Christian Baedorf 1:33.051 0:01.639

Runde 10

Pos Rennpos Fahrer Zeit Diff
1 1 Dietmar Scholz 1:31.575 -
2 4 Eric Nieth 1:33.075 0:01.500
3 2 Nils Herbstrieth 1:33.318 0:01.743
4 6 Gerd Haarkamp 1:34.168 0:02.593
5 3 Christian Baedorf 1:34.219 0:02.644

Runde 11

Pos Rennpos Fahrer Zeit Diff
1 1 Dietmar Scholz 1:32.080 -
2 3 Christian Baedorf 1:33.391 0:01.311
3 4 Alex Krueger 1:33.395 0:01.315
4 2 Nils Herbstrieth 1:34.439 0:02.359
5 9 Tino Kerkow 1:34.521 0:02.441

Runde 12

Pos Rennpos Fahrer Zeit Diff
1 1 Dietmar Scholz 1:31.791 -
2 3 Alex Krueger 1:33.108 0:01.317
3 2 Nils Herbstrieth 1:33.817 0:02.026
4 4 Christian Baedorf 1:34.574 0:02.783
5 6 Gerd Haarkamp 1:35.216 0:03.425

Runde 13

Pos Rennpos Fahrer Zeit Diff
1 4 Eric Nieth 1:32.507 -
2 1 Dietmar Scholz 1:33.006 0:00.499
3 3 Alex Krueger 1:34.034 0:01.527
4 2 Nils Herbstrieth 1:34.164 0:01.657
5 6 Tino Kerkow 1:35.638 0:03.131

Runde 14

Pos Rennpos Fahrer Zeit Diff
1 1 Dietmar Scholz 1:31.973 -
2 4 Eric Nieth 1:32.052 0:00.079
3 3 Alex Krueger 1:33.343 0:01.370
4 2 Nils Herbstrieth 1:33.534 0:01.561
5 6 Tino Kerkow 1:34.468 0:02.495

Runde 15

Pos Rennpos Fahrer Zeit Diff
1 1 Dietmar Scholz 1:31.887 -
2 4 Eric Nieth 1:32.317 0:00.430
3 3 Alex Krueger 1:33.613 0:01.726
4 2 Nils Herbstrieth 1:34.015 0:02.128
5 6 Tino Kerkow 1:34.784 0:02.897

Runde 16

Pos Rennpos Fahrer Zeit Diff
1 1 Dietmar Scholz 1:31.393 -
2 2 Eric Nieth 1:33.014 0:01.621
3 5 Gerd Haarkamp 1:35.325 0:03.932
4 6 Tino Kerkow 1:35.707 0:04.314
5 3 Nils Herbstrieth 1:35.907 0:04.514

Runde 17

Pos Rennpos Fahrer Zeit Diff
1 3 Alex Krueger 1:32.502 -
2 2 Eric Nieth 1:33.366 0:00.864
3 5 Gerd Haarkamp 1:34.140 0:01.638
4 6 Tino Kerkow 1:34.301 0:01.799
5 1 Dietmar Scholz 1:36.003 0:03.501

Runde 18

Pos Rennpos Fahrer Zeit Diff
1 1 Dietmar Scholz 1:32.073 -
2 3 Alex Krueger 1:32.090 0:00.017
3 2 Eric Nieth 1:33.484 0:01.411
4 4 Nils Herbstrieth 1:33.917 0:01.844
5 5 Gerd Haarkamp 1:34.634 0:02.561

Runde 19

Pos Rennpos Fahrer Zeit Diff
1 1 Dietmar Scholz 1:31.828 -
2 2 Alex Krueger 1:33.073 0:01.245
3 5 Gerd Haarkamp 1:35.335 0:03.507
4 6 Tino Kerkow 1:35.640 0:03.812
5 7 Jürgen Tippe 1:37.348 0:05.520

Runde 20

Pos Rennpos Fahrer Zeit Diff
1 2 Alex Krueger 1:32.409 -
2 1 Dietmar Scholz 1:33.206 0:00.797
3 3 Eric Nieth 1:33.387 0:00.978
4 4 Nils Herbstrieth 1:34.695 0:02.286
5 5 Gerd Haarkamp 1:35.235 0:02.826

SERVER

0 / 61
virtualracing.org #1 GTM
Training 1Lime Rock Park -- Uphill Chicane
0 / 81
virtualracing.org #3 FS
Training 1Oulton Park International NC
0 / 81
virtualracing.org #4 LSM
Training 1Spa-Francorchamps Endurance
0 / 34
virtualracing.org #5 VRF1S
Training 1Zandvoort 2021
0 / 34
virtualracing.org #6 VRCS
Training 1Donington Park National Circuit
0 / 81
virtualracing.org #P1 BTCC
QualifikationOulton Park International
0 / 81
virtualracing.org #P2 CA
WarmUpSilverstone Endurance
0 / 34
virtualracing.org #P3 Mini
WarmUpSilverstone International
0 / 33
virtualracing.org #P4 IR18
Training 1Indianapolis Road Course
0/31
virtualracing.org#4 GTC Training Standard
TrainingDaytona International Speedway - Road Course
0/31
virtualracing.org#5 GTC Training A
TrainingDaytona International Speedway - Road Course
0/24
virtualracing.org#30 ALT Training
TrainingFuji Speedway - Grand Prix Circuit 1968
0/32
virtualracing.org#33 GTC Starttest
unbekanntDaytona International Speedway - Road Course